24 Sep 2020 09:23 UTC 2020268+09:23 UTC

Overview Datums Bench Marks Data Query Site Visit Daily QC Messages Attributes

170: National Park Service - Baffin Bay

27° 17' 49" N   97° 24' 17" W
NPSBB
United States National Park Service United States National Park Service

Station Information

National Park Service - Baffin Bay
National Park Service - Baffin Bay
more pictures
 
Station Name:National Park Service - Baffin Bay
DNR ID:170
Location:27° 17' 49" N, 97° 24' 17" W

Water Level Forecasts

Latest Observations

Series Metric English Marine Observed at
Water Temperature 24.7 °C 76.5 °F 76.5 °F Sep 24 03:42 CDT
00h30m ago
Salinity 29.700 psu 29.700 psu 29.700 psu Sep 24 03:42 CDT
00h30m ago
Turbidity 61 ntu 61 ntu 61 ntu Sep 24 03:42 CDT
00h30m ago
Dissolved Oxygen 6.23 mg/L 0.000389 lb/ft3 0.000389 lb/ft3 Sep 24 03:42 CDT
00h30m ago

Maps

National Park Service - Baffin Bay
All Stations in Area
Entire Network
 

Recent Observations

Date/Time Water
Temp (°F)
Sal (psu) pH (pH) Turb (ntu) DO (lb/ft3)
Sep 24 03:00 CDT 76.8 29.900 72 0.000400
Sep 24 02:00 CDT 77.0 30.100 76 0.000404
Sep 24 01:00 CDT 77.4 29.800 62 0.000413
Sep 24 00:00 CDT 77.7 29.600 67 0.000388
Sep 23 23:00 CDT 77.7 28.500 65 0.000421
Sep 23 22:00 CDT 77.5 30.000 76 0.000429
Sep 23 21:00 CDT 78.3 29.700 70 0.000443
Sep 23 20:00 CDT 78.6 29.800 74 0.000463
Sep 23 19:00 CDT 78.4 30.400 74 0.000469
Sep 23 18:00 CDT 77.7 29.500 74 0.000448
Sep 23 17:00 CDT 78.4 29.600 75 0.000506
Sep 23 16:00 CDT 78.8 29.700 74 0.000506
Sep 23 15:00 CDT 78.6 29.600 73 0.000499
Sep 23 14:00 CDT 78.3 29.800 78 0.000493
Sep 23 13:00 CDT 77.7 30.200 73 0.000464
Sep 23 12:00 CDT 76.6 30.000 73 0.000436
Sep 23 11:00 CDT 76.1 30.200 65 0.000422
Sep 23 10:00 CDT 75.6 30.000 71 0.000401
Sep 23 09:00 CDT 75.4 29.400 472 0.000388
Sep 23 08:00 CDT 75.0 29.700 70 0.000361
Sep 23 07:00 CDT 75.0 30.700 66 0.000376
Sep 23 06:00 CDT 74.7 30.400 58 0.000379
Sep 23 05:00 CDT 74.7 29.700 70 0.000385
Sep 23 04:00 CDT 75.0 29.800 70 0.000396

Historical Data Availability